sensor_id;sensor_type;location;lat;lon;timestamp;temperature;humidity
42615;DHT22;28754;47.700;7.924;2022-08-19T00:00:09;17.00;99.90
42615;DHT22;28754;47.700;7.924;2022-08-19T00:02:56;17.00;99.90
42615;DHT22;28754;47.700;7.924;2022-08-19T00:05:43;17.10;99.90
42615;DHT22;28754;47.700;7.924;2022-08-19T00:08:30;17.10;99.90
42615;DHT22;28754;47.700;7.924;2022-08-19T00:11:17;17.10;99.90
42615;DHT22;28754;47.700;7.924;2022-08-19T00:14:06;17.00;99.90
42615;DHT22;28754;47.700;7.924;2022-08-19T00:16:56;17.10;99.90
42615;DHT22;28754;47.700;7.924;2022-08-19T00:19:42;17.10;99.90
42615;DHT22;28754;47.700;7.924;2022-08-19T00:22:29;17.10;99.90
42615;DHT22;28754;47.700;7.924;2022-08-19T00:25:16;17.10;99.90
42615;DHT22;28754;47.700;7.924;2022-08-19T00:28:03;17.10;99.90
42615;DHT22;28754;47.700;7.924;2022-08-19T00:30:51;17.00;99.90
42615;DHT22;28754;47.700;7.924;2022-08-19T00:33:39;17.10;99.90
42615;DHT22;28754;47.700;7.924;2022-08-19T00:36:26;17.10;99.90
42615;DHT22;28754;47.700;7.924;2022-08-19T00:39:16;17.20;99.90
42615;DHT22;28754;47.700;7.924;2022-08-19T00:42:04;17.20;99.90
42615;DHT22;28754;47.700;7.924;2022-08-19T00:44:52;17.20;99.90
42615;DHT22;28754;47.700;7.924;2022-08-19T00:47:39;17.30;99.90
42615;DHT22;28754;47.700;7.924;2022-08-19T00:50:26;17.30;99.90
42615;DHT22;28754;47.700;7.924;2022-08-19T00:53:16;17.30;99.90
42615;DHT22;28754;47.700;7.924;2022-08-19T00:56:06;17.30;99.90
42615;DHT22;28754;47.700;7.924;2022-08-19T00:58:55;17.30;99.90
42615;DHT22;28754;47.700;7.924;2022-08-19T01:01:44;17.30;99.90
42615;DHT22;28754;47.700;7.924;2022-08-19T01:04:32;17.30;99.90
42615;DHT22;28754;47.700;7.924;2022-08-19T01:07:19;17.30;99.90
42615;DHT22;28754;47.700;7.924;2022-08-19T01:10:09;17.40;99.90
42615;DHT22;28754;47.700;7.924;2022-08-19T01:13:01;17.30;99.90
42615;DHT22;28754;47.700;7.924;2022-08-19T01:15:53;17.40;99.90
42615;DHT22;28754;47.700;7.924;2022-08-19T01:18:42;17.30;99.90
42615;DHT22;28754;47.700;7.924;2022-08-19T01:21:40;17.30;99.90
42615;DHT22;28754;47.700;7.924;2022-08-19T01:24:32;17.30;99.90
42615;DHT22;28754;47.700;7.924;2022-08-19T01:27:19;17.30;99.90
42615;DHT22;28754;47.700;7.924;2022-08-19T01:30:07;17.20;99.90
42615;DHT22;28754;47.700;7.924;2022-08-19T01:32:55;17.20;99.90
42615;DHT22;28754;47.700;7.924;2022-08-19T01:35:42;17.20;99.90
42615;DHT22;28754;47.700;7.924;2022-08-19T01:38:29;17.20;99.90
42615;DHT22;28754;47.700;7.924;2022-08-19T01:41:17;17.20;99.90
42615;DHT22;28754;47.700;7.924;2022-08-19T01:44:06;17.10;99.90
42615;DHT22;28754;47.700;7.924;2022-08-19T01:46:54;17.00;99.90
42615;DHT22;28754;47.700;7.924;2022-08-19T01:49:41;17.00;99.90
42615;DHT22;28754;47.700;7.924;2022-08-19T01:52:28;17.10;99.90
42615;DHT22;28754;47.700;7.924;2022-08-19T01:55:17;17.10;99.90
42615;DHT22;28754;47.700;7.924;2022-08-19T01:58:11;17.10;99.90
42615;DHT22;28754;47.700;7.924;2022-08-19T02:01:00;17.10;99.90
42615;DHT22;28754;47.700;7.924;2022-08-19T02:03:47;17.10;99.90
42615;DHT22;28754;47.700;7.924;2022-08-19T02:06:33;17.10;99.90
42615;DHT22;28754;47.700;7.924;2022-08-19T02:09:20;17.10;99.90
42615;DHT22;28754;47.700;7.924;2022-08-19T02:12:07;17.10;99.90
42615;DHT22;28754;47.700;7.924;2022-08-19T02:14:55;17.10;99.90
42615;DHT22;28754;47.700;7.924;2022-08-19T02:17:42;17.10;99.90
42615;DHT22;28754;47.700;7.924;2022-08-19T02:20:28;17.10;99.90
42615;DHT22;28754;47.700;7.924;2022-08-19T02:23:16;17.10;99.90
42615;DHT22;28754;47.700;7.924;2022-08-19T02:26:03;17.20;99.90
42615;DHT22;28754;47.700;7.924;2022-08-19T02:28:50;16.80;99.90
42615;DHT22;28754;47.700;7.924;2022-08-19T02:31:36;16.80;99.90
42615;DHT22;28754;47.700;7.924;2022-08-19T02:34:23;16.80;99.90
42615;DHT22;28754;47.700;7.924;2022-08-19T02:37:11;16.70;99.90
42615;DHT22;28754;47.700;7.924;2022-08-19T02:40:18;16.50;99.90
42615;DHT22;28754;47.700;7.924;2022-08-19T02:43:07;16.40;99.90
42615;DHT22;28754;47.700;7.924;2022-08-19T02:45:54;16.50;99.90
42615;DHT22;28754;47.700;7.924;2022-08-19T02:48:41;16.40;99.90
42615;DHT22;28754;47.700;7.924;2022-08-19T02:51:34;16.30;99.90
42615;DHT22;28754;47.700;7.924;2022-08-19T02:54:22;16.50;99.90
42615;DHT22;28754;47.700;7.924;2022-08-19T02:57:09;16.60;99.90
42615;DHT22;28754;47.700;7.924;2022-08-19T02:59:57;16.70;99.90
42615;DHT22;28754;47.700;7.924;2022-08-19T03:02:43;16.80;99.90
42615;DHT22;28754;47.700;7.924;2022-08-19T03:05:30;16.90;99.90
42615;DHT22;28754;47.700;7.924;2022-08-19T03:08:17;16.90;99.90
42615;DHT22;28754;47.700;7.924;2022-08-19T03:11:04;17.00;99.90
42615;DHT22;28754;47.700;7.924;2022-08-19T03:13:51;17.00;99.90
42615;DHT22;28754;47.700;7.924;2022-08-19T03:16:48;17.00;99.90
42615;DHT22;28754;47.700;7.924;2022-08-19T03:19:37;17.00;99.90
42615;DHT22;28754;47.700;7.924;2022-08-19T03:22:24;17.00;99.90
42615;DHT22;28754;47.700;7.924;2022-08-19T03:25:11;17.00;99.90
42615;DHT22;28754;47.700;7.924;2022-08-19T03:27:58;17.00;99.90
42615;DHT22;28754;47.700;7.924;2022-08-19T03:31:05;17.00;99.90
42615;DHT22;28754;47.700;7.924;2022-08-19T03:33:57;16.90;99.90
42615;DHT22;28754;47.700;7.924;2022-08-19T03:36:44;17.00;99.90
42615;DHT22;28754;47.700;7.924;2022-08-19T03:39:32;17.00;99.90
42615;DHT22;28754;47.700;7.924;2022-08-19T03:42:19;17.00;99.90
42615;DHT22;28754;47.700;7.924;2022-08-19T03:45:06;17.10;99.90
42615;DHT22;28754;47.700;7.924;2022-08-19T03:47:53;16.90;99.90
42615;DHT22;28754;47.700;7.924;2022-08-19T03:50:40;16.80;99.90
42615;DHT22;28754;47.700;7.924;2022-08-19T03:53:28;16.80;99.90
42615;DHT22;28754;47.700;7.924;2022-08-19T03:56:17;16.70;99.90
42615;DHT22;28754;47.700;7.924;2022-08-19T03:59:05;16.80;99.90
42615;DHT22;28754;47.700;7.924;2022-08-19T04:01:56;16.80;99.90
42615;DHT22;28754;47.700;7.924;2022-08-19T04:04:44;16.60;99.90
42615;DHT22;28754;47.700;7.924;2022-08-19T04:07:31;16.70;99.90
42615;DHT22;28754;47.700;7.924;2022-08-19T04:10:17;16.60;99.90
42615;DHT22;28754;47.700;7.924;2022-08-19T04:13:04;16.50;99.90
42615;DHT22;28754;47.700;7.924;2022-08-19T04:15:53;16.40;99.90
42615;DHT22;28754;47.700;7.924;2022-08-19T04:18:40;16.40;99.90
42615;DHT22;28754;47.700;7.924;2022-08-19T04:21:27;16.40;99.90
42615;DHT22;28754;47.700;7.924;2022-08-19T04:24:15;16.40;99.90
42615;DHT22;28754;47.700;7.924;2022-08-19T04:27:02;16.50;99.90
42615;DHT22;28754;47.700;7.924;2022-08-19T04:29:50;16.70;99.90
42615;DHT22;28754;47.700;7.924;2022-08-19T04:32:36;16.80;99.90
42615;DHT22;28754;47.700;7.924;2022-08-19T04:35:23;16.60;99.90
42615;DHT22;28754;47.700;7.924;2022-08-19T04:38:11;16.60;99.90
42615;DHT22;28754;47.700;7.924;2022-08-19T04:40:58;16.50;99.90
42615;DHT22;28754;47.700;7.924;2022-08-19T04:44:04;16.50;99.90
42615;DHT22;28754;47.700;7.924;2022-08-19T04:46:51;16.60;99.90
42615;DHT22;28754;47.700;7.924;2022-08-19T04:49:38;16.60;99.90
42615;DHT22;28754;47.700;7.924;2022-08-19T04:52:25;16.50;99.90
42615;DHT22;28754;47.700;7.924;2022-08-19T04:55:12;16.40;99.90
42615;DHT22;28754;47.700;7.924;2022-08-19T04:57:59;16.50;99.90
42615;DHT22;28754;47.700;7.924;2022-08-19T05:00:46;16.60;99.90
42615;DHT22;28754;47.700;7.924;2022-08-19T05:03:33;16.70;99.90
42615;DHT22;28754;47.700;7.924;2022-08-19T05:06:21;16.70;99.90
42615;DHT22;28754;47.700;7.924;2022-08-19T05:09:09;16.80;99.90
42615;DHT22;28754;47.700;7.924;2022-08-19T05:11:56;16.80;99.90
42615;DHT22;28754;47.700;7.924;2022-08-19T05:14:43;16.90;99.90
42615;DHT22;28754;47.700;7.924;2022-08-19T05:17:31;17.00;99.90
42615;DHT22;28754;47.700;7.924;2022-08-19T05:20:18;16.90;99.90
42615;DHT22;28754;47.700;7.924;2022-08-19T05:23:23;16.90;99.90
42615;DHT22;28754;47.700;7.924;2022-08-19T05:26:10;16.80;99.90
42615;DHT22;28754;47.700;7.924;2022-08-19T05:28:57;16.80;99.90
42615;DHT22;28754;47.700;7.924;2022-08-19T05:31:45;16.70;99.90
42615;DHT22;28754;47.700;7.924;2022-08-19T05:34:32;16.80;99.90
42615;DHT22;28754;47.700;7.924;2022-08-19T05:37:19;16.70;99.90
42615;DHT22;28754;47.700;7.924;2022-08-19T05:40:07;16.80;99.90
42615;DHT22;28754;47.700;7.924;2022-08-19T05:42:55;16.80;99.90
42615;DHT22;28754;47.700;7.924;2022-08-19T05:45:42;16.80;99.90
42615;DHT22;28754;47.700;7.924;2022-08-19T05:48:29;16.90;99.90
42615;DHT22;28754;47.700;7.924;2022-08-19T05:51:16;16.90;99.90
42615;DHT22;28754;47.700;7.924;2022-08-19T05:54:05;16.80;99.90
42615;DHT22;28754;47.700;7.924;2022-08-19T05:56:53;16.90;99.90
42615;DHT22;28754;47.700;7.924;2022-08-19T05:59:40;16.90;99.90
42615;DHT22;28754;47.700;7.924;2022-08-19T06:02:27;16.90;99.90
42615;DHT22;28754;47.700;7.924;2022-08-19T06:05:16;16.60;99.90
42615;DHT22;28754;47.700;7.924;2022-08-19T06:08:03;16.60;99.90
42615;DHT22;28754;47.700;7.924;2022-08-19T06:10:50;16.50;99.90
42615;DHT22;28754;47.700;7.924;2022-08-19T06:13:37;16.40;99.90
42615;DHT22;28754;47.700;7.924;2022-08-19T06:16:24;16.40;99.90
42615;DHT22;28754;47.700;7.924;2022-08-19T06:19:14;16.50;99.90
42615;DHT22;28754;47.700;7.924;2022-08-19T06:22:03;16.50;99.90
42615;DHT22;28754;47.700;7.924;2022-08-19T06:24:50;16.50;99.90
42615;DHT22;28754;47.700;7.924;2022-08-19T06:27:39;16.50;99.90
42615;DHT22;28754;47.700;7.924;2022-08-19T06:30:26;16.50;99.90
42615;DHT22;28754;47.700;7.924;2022-08-19T06:33:13;16.50;99.90
42615;DHT22;28754;47.700;7.924;2022-08-19T06:36:00;16.40;99.90
42615;DHT22;28754;47.700;7.924;2022-08-19T06:38:46;16.30;99.90
42615;DHT22;28754;47.700;7.924;2022-08-19T06:41:39;16.30;99.90
42615;DHT22;28754;47.700;7.924;2022-08-19T06:44:36;16.40;99.90
42615;DHT22;28754;47.700;7.924;2022-08-19T06:47:24;16.50;99.90
42615;DHT22;28754;47.700;7.924;2022-08-19T06:50:11;16.40;99.90
42615;DHT22;28754;47.700;7.924;2022-08-19T06:52:58;16.50;99.90
42615;DHT22;28754;47.700;7.924;2022-08-19T06:55:45;16.60;99.90
42615;DHT22;28754;47.700;7.924;2022-08-19T06:58:32;16.60;99.90
42615;DHT22;28754;47.700;7.924;2022-08-19T07:01:19;16.70;99.90
42615;DHT22;28754;47.700;7.924;2022-08-19T07:04:07;16.70;99.90
42615;DHT22;28754;47.700;7.924;2022-08-19T07:07:07;16.60;99.90
42615;DHT22;28754;47.700;7.924;2022-08-19T07:09:56;16.60;99.90
42615;DHT22;28754;47.700;7.924;2022-08-19T07:12:42;16.70;99.90
42615;DHT22;28754;47.700;7.924;2022-08-19T07:15:29;16.60;99.90
42615;DHT22;28754;47.700;7.924;2022-08-19T07:18:19;16.60;99.90
42615;DHT22;28754;47.700;7.924;2022-08-19T07:21:09;16.80;99.90
42615;DHT22;28754;47.700;7.924;2022-08-19T07:23:59;16.90;99.90
42615;DHT22;28754;47.700;7.924;2022-08-19T07:26:46;16.90;99.90
42615;DHT22;28754;47.700;7.924;2022-08-19T07:29:34;16.90;99.90
42615;DHT22;28754;47.700;7.924;2022-08-19T07:32:22;16.90;99.90
42615;DHT22;28754;47.700;7.924;2022-08-19T07:35:09;17.00;99.90
42615;DHT22;28754;47.700;7.924;2022-08-19T07:37:56;17.00;99.90
42615;DHT22;28754;47.700;7.924;2022-08-19T07:40:44;16.90;99.90
42615;DHT22;28754;47.700;7.924;2022-08-19T07:43:32;16.90;99.90
42615;DHT22;28754;47.700;7.924;2022-08-19T07:46:19;16.80;99.90
42615;DHT22;28754;47.700;7.924;2022-08-19T07:49:07;16.80;99.90
42615;DHT22;28754;47.700;7.924;2022-08-19T07:52:03;16.80;99.90
42615;DHT22;28754;47.700;7.924;2022-08-19T07:54:52;16.80;99.90
42615;DHT22;28754;47.700;7.924;2022-08-19T07:57:39;16.80;99.90
42615;DHT22;28754;47.700;7.924;2022-08-19T08:00:26;16.80;99.90
42615;DHT22;28754;47.700;7.924;2022-08-19T08:03:15;17.00;99.90
42615;DHT22;28754;47.700;7.924;2022-08-19T08:06:03;17.00;99.90
42615;DHT22;28754;47.700;7.924;2022-08-19T08:09:09;16.90;99.90
42615;DHT22;28754;47.700;7.924;2022-08-19T08:12:11;17.00;99.90
42615;DHT22;28754;47.700;7.924;2022-08-19T08:15:08;17.00;99.90
42615;DHT22;28754;47.700;7.924;2022-08-19T08:17:58;16.90;99.90
42615;DHT22;28754;47.700;7.924;2022-08-19T08:20:44;16.80;99.90
42615;DHT22;28754;47.700;7.924;2022-08-19T08:23:31;17.00;99.90
42615;DHT22;28754;47.700;7.924;2022-08-19T08:26:18;17.10;99.90
42615;DHT22;28754;47.700;7.924;2022-08-19T08:29:04;17.00;99.90
42615;DHT22;28754;47.700;7.924;2022-08-19T08:31:53;17.10;99.90
42615;DHT22;28754;47.700;7.924;2022-08-19T08:34:40;17.20;99.90
42615;DHT22;28754;47.700;7.924;2022-08-19T08:37:27;17.10;99.90
42615;DHT22;28754;47.700;7.924;2022-08-19T08:40:30;17.10;99.90
42615;DHT22;28754;47.700;7.924;2022-08-19T08:43:35;17.10;99.90
42615;DHT22;28754;47.700;7.924;2022-08-19T08:46:55;17.10;99.90
42615;DHT22;28754;47.700;7.924;2022-08-19T08:49:55;17.10;99.90
42615;DHT22;28754;47.700;7.924;2022-08-19T08:52:49;17.10;99.90
42615;DHT22;28754;47.700;7.924;2022-08-19T08:55:40;17.20;99.90
42615;DHT22;28754;47.700;7.924;2022-08-19T08:58:48;17.00;99.90
42615;DHT22;28754;47.700;7.924;2022-08-19T09:01:42;16.90;99.90
42615;DHT22;28754;47.700;7.924;2022-08-19T09:04:29;16.90;99.90
42615;DHT22;28754;47.700;7.924;2022-08-19T09:07:39;16.80;99.90
42615;DHT22;28754;47.700;7.924;2022-08-19T09:10:54;16.80;99.90
42615;DHT22;28754;47.700;7.924;2022-08-19T09:13:58;16.90;99.90
42615;DHT22;28754;47.700;7.924;2022-08-19T09:16:58;16.90;99.90
42615;DHT22;28754;47.700;7.924;2022-08-19T09:19:55;17.10;99.90
42615;DHT22;28754;47.700;7.924;2022-08-19T09:22:44;17.00;99.90
42615;DHT22;28754;47.700;7.924;2022-08-19T09:25:31;17.00;99.90
42615;DHT22;28754;47.700;7.924;2022-08-19T09:28:20;17.10;99.90
42615;DHT22;28754;47.700;7.924;2022-08-19T09:31:07;17.20;99.90
42615;DHT22;28754;47.700;7.924;2022-08-19T09:33:54;17.20;99.90
42615;DHT22;28754;47.700;7.924;2022-08-19T09:36:43;17.30;99.90
42615;DHT22;28754;47.700;7.924;2022-08-19T09:39:30;17.20;99.90
42615;DHT22;28754;47.700;7.924;2022-08-19T09:42:17;17.20;99.90
42615;DHT22;28754;47.700;7.924;2022-08-19T09:45:04;17.30;99.90
42615;DHT22;28754;47.700;7.924;2022-08-19T09:47:52;17.30;99.90
42615;DHT22;28754;47.700;7.924;2022-08-19T09:50:39;17.40;99.90
42615;DHT22;28754;47.700;7.924;2022-08-19T09:53:26;17.40;99.90
42615;DHT22;28754;47.700;7.924;2022-08-19T09:56:13;17.30;99.90
42615;DHT22;28754;47.700;7.924;2022-08-19T09:59:01;17.30;99.90
42615;DHT22;28754;47.700;7.924;2022-08-19T10:01:50;17.30;99.90
42615;DHT22;28754;47.700;7.924;2022-08-19T10:04:37;17.20;99.90
42615;DHT22;28754;47.700;7.924;2022-08-19T10:07:42;17.20;99.90
42615;DHT22;28754;47.700;7.924;2022-08-19T10:10:29;17.10;99.90
42615;DHT22;28754;47.700;7.924;2022-08-19T10:13:18;17.20;99.90
42615;DHT22;28754;47.700;7.924;2022-08-19T10:16:16;17.40;99.90
42615;DHT22;28754;47.700;7.924;2022-08-19T10:19:05;17.20;99.90
42615;DHT22;28754;47.700;7.924;2022-08-19T10:21:53;17.10;99.90
42615;DHT22;28754;47.700;7.924;2022-08-19T10:24:40;17.00;99.90
42615;DHT22;28754;47.700;7.924;2022-08-19T10:27:27;17.10;99.90
42615;DHT22;28754;47.700;7.924;2022-08-19T10:30:14;17.00;99.90
42615;DHT22;28754;47.700;7.924;2022-08-19T10:33:00;17.20;99.90
42615;DHT22;28754;47.700;7.924;2022-08-19T10:35:47;17.30;99.90
42615;DHT22;28754;47.700;7.924;2022-08-19T10:38:35;17.30;99.90
42615;DHT22;28754;47.700;7.924;2022-08-19T10:41:28;17.20;99.90
42615;DHT22;28754;47.700;7.924;2022-08-19T10:44:16;17.10;99.90
42615;DHT22;28754;47.700;7.924;2022-08-19T10:47:04;17.30;99.90
42615;DHT22;28754;47.700;7.924;2022-08-19T10:49:53;17.30;99.90
42615;DHT22;28754;47.700;7.924;2022-08-19T10:53:04;17.30;99.90
42615;DHT22;28754;47.700;7.924;2022-08-19T10:55:52;17.40;99.90
42615;DHT22;28754;47.700;7.924;2022-08-19T10:58:57;17.60;99.90
42615;DHT22;28754;47.700;7.924;2022-08-19T11:01:45;17.50;99.90
42615;DHT22;28754;47.700;7.924;2022-08-19T11:04:32;17.60;99.90
42615;DHT22;28754;47.700;7.924;2022-08-19T11:07:19;17.50;99.90
42615;DHT22;28754;47.700;7.924;2022-08-19T11:10:10;17.40;99.90
42615;DHT22;28754;47.700;7.924;2022-08-19T11:12:58;17.30;99.90
42615;DHT22;28754;47.700;7.924;2022-08-19T11:15:46;17.40;99.90
42615;DHT22;28754;47.700;7.924;2022-08-19T11:18:37;17.50;99.90
42615;DHT22;28754;47.700;7.924;2022-08-19T11:21:34;17.40;99.90
42615;DHT22;28754;47.700;7.924;2022-08-19T11:24:25;17.60;99.90
42615;DHT22;28754;47.700;7.924;2022-08-19T11:27:12;17.70;99.90
42615;DHT22;28754;47.700;7.924;2022-08-19T11:30:00;17.80;99.90
42615;DHT22;28754;47.700;7.924;2022-08-19T11:32:47;17.70;99.90
42615;DHT22;28754;47.700;7.924;2022-08-19T11:35:34;17.60;99.90
42615;DHT22;28754;47.700;7.924;2022-08-19T11:38:26;17.70;99.90
42615;DHT22;28754;47.700;7.924;2022-08-19T11:41:13;17.70;99.90
42615;DHT22;28754;47.700;7.924;2022-08-19T11:44:02;17.50;99.90
42615;DHT22;28754;47.700;7.924;2022-08-19T11:46:49;17.50;99.90
42615;DHT22;28754;47.700;7.924;2022-08-19T11:49:36;17.70;99.90
42615;DHT22;28754;47.700;7.924;2022-08-19T11:52:22;17.50;99.90
42615;DHT22;28754;47.700;7.924;2022-08-19T11:55:09;17.50;99.90
42615;DHT22;28754;47.700;7.924;2022-08-19T11:57:56;17.70;99.90
42615;DHT22;28754;47.700;7.924;2022-08-19T12:00:43;17.70;99.90
42615;DHT22;28754;47.700;7.924;2022-08-19T12:03:31;17.80;99.90
42615;DHT22;28754;47.700;7.924;2022-08-19T12:06:29;17.80;99.90
42615;DHT22;28754;47.700;7.924;2022-08-19T12:09:18;18.10;99.90
42615;DHT22;28754;47.700;7.924;2022-08-19T12:12:06;18.20;99.90
42615;DHT22;28754;47.700;7.924;2022-08-19T12:14:53;18.40;99.90
42615;DHT22;28754;47.700;7.924;2022-08-19T12:17:42;18.50;99.90
42615;DHT22;28754;47.700;7.924;2022-08-19T12:20:29;18.80;99.90
42615;DHT22;28754;47.700;7.924;2022-08-19T12:23:16;18.70;99.90
42615;DHT22;28754;47.700;7.924;2022-08-19T12:26:04;18.80;99.90
42615;DHT22;28754;47.700;7.924;2022-08-19T12:28:51;18.90;99.90
42615;DHT22;28754;47.700;7.924;2022-08-19T12:31:38;18.90;99.90
42615;DHT22;28754;47.700;7.924;2022-08-19T12:34:27;18.90;99.90
42615;DHT22;28754;47.700;7.924;2022-08-19T12:37:16;18.70;99.90
42615;DHT22;28754;47.700;7.924;2022-08-19T12:40:03;18.70;99.90
42615;DHT22;28754;47.700;7.924;2022-08-19T12:42:54;18.80;99.90
42615;DHT22;28754;47.700;7.924;2022-08-19T12:45:42;18.70;99.90
42615;DHT22;28754;47.700;7.924;2022-08-19T12:48:30;18.90;99.90
42615;DHT22;28754;47.700;7.924;2022-08-19T12:51:18;18.80;99.90
42615;DHT22;28754;47.700;7.924;2022-08-19T12:54:06;18.80;99.90
42615;DHT22;28754;47.700;7.924;2022-08-19T12:56:52;19.10;99.90
42615;DHT22;28754;47.700;7.924;2022-08-19T12:59:40;19.10;99.90
42615;DHT22;28754;47.700;7.924;2022-08-19T13:02:27;18.80;99.90
42615;DHT22;28754;47.700;7.924;2022-08-19T13:05:17;18.80;99.90
42615;DHT22;28754;47.700;7.924;2022-08-19T13:08:07;18.60;99.90
42615;DHT22;28754;47.700;7.924;2022-08-19T13:10:53;18.20;99.90
42615;DHT22;28754;47.700;7.924;2022-08-19T13:13:42;18.20;99.90
42615;DHT22;28754;47.700;7.924;2022-08-19T13:16:30;18.30;99.90
42615;DHT22;28754;47.700;7.924;2022-08-19T13:19:17;18.50;99.90
42615;DHT22;28754;47.700;7.924;2022-08-19T13:22:07;18.40;99.90
42615;DHT22;28754;47.700;7.924;2022-08-19T13:24:57;18.50;99.90
42615;DHT22;28754;47.700;7.924;2022-08-19T13:27:44;18.30;99.90
42615;DHT22;28754;47.700;7.924;2022-08-19T13:30:32;18.50;99.90
42615;DHT22;28754;47.700;7.924;2022-08-19T13:33:37;18.50;99.90
42615;DHT22;28754;47.700;7.924;2022-08-19T13:36:25;18.60;99.90
42615;DHT22;28754;47.700;7.924;2022-08-19T13:39:12;18.40;99.90
42615;DHT22;28754;47.700;7.924;2022-08-19T13:41:59;18.20;99.90
42615;DHT22;28754;47.700;7.924;2022-08-19T13:44:47;17.90;99.90
42615;DHT22;28754;47.700;7.924;2022-08-19T13:47:35;17.60;99.90
42615;DHT22;28754;47.700;7.924;2022-08-19T13:50:24;17.60;99.90
42615;DHT22;28754;47.700;7.924;2022-08-19T13:53:14;17.60;99.90
42615;DHT22;28754;47.700;7.924;2022-08-19T13:56:05;17.70;99.90
42615;DHT22;28754;47.700;7.924;2022-08-19T13:58:53;17.70;99.90
42615;DHT22;28754;47.700;7.924;2022-08-19T14:01:40;17.90;99.90
42615;DHT22;28754;47.700;7.924;2022-08-19T14:04:27;17.80;99.90
42615;DHT22;28754;47.700;7.924;2022-08-19T14:07:14;17.90;99.90
42615;DHT22;28754;47.700;7.924;2022-08-19T14:10:02;17.90;99.90
42615;DHT22;28754;47.700;7.924;2022-08-19T14:12:54;17.90;99.90
42615;DHT22;28754;47.700;7.924;2022-08-19T14:15:41;17.90;99.90
42615;DHT22;28754;47.700;7.924;2022-08-19T14:18:28;17.90;99.90
42615;DHT22;28754;47.700;7.924;2022-08-19T14:21:17;17.90;99.90
42615;DHT22;28754;47.700;7.924;2022-08-19T14:24:07;17.80;99.90
42615;DHT22;28754;47.700;7.924;2022-08-19T14:26:54;17.90;99.90
42615;DHT22;28754;47.700;7.924;2022-08-19T14:29:41;18.20;99.90
42615;DHT22;28754;47.700;7.924;2022-08-19T14:32:28;18.50;99.90
42615;DHT22;28754;47.700;7.924;2022-08-19T14:35:16;18.60;99.90
42615;DHT22;28754;47.700;7.924;2022-08-19T14:38:04;18.70;99.90
42615;DHT22;28754;47.700;7.924;2022-08-19T14:40:52;18.70;99.90
42615;DHT22;28754;47.700;7.924;2022-08-19T14:43:39;19.00;99.90
42615;DHT22;28754;47.700;7.924;2022-08-19T14:46:27;19.40;99.90
42615;DHT22;28754;47.700;7.924;2022-08-19T14:49:14;19.90;99.90
42615;DHT22;28754;47.700;7.924;2022-08-19T14:52:02;19.50;99.90
42615;DHT22;28754;47.700;7.924;2022-08-19T14:54:49;19.30;99.90
42615;DHT22;28754;47.700;7.924;2022-08-19T14:57:36;19.10;99.90
42615;DHT22;28754;47.700;7.924;2022-08-19T15:00:23;19.10;99.90
42615;DHT22;28754;47.700;7.924;2022-08-19T15:03:10;18.60;99.90
42615;DHT22;28754;47.700;7.924;2022-08-19T15:06:00;18.00;99.90
42615;DHT22;28754;47.700;7.924;2022-08-19T15:08:48;17.70;99.90
42615;DHT22;28754;47.700;7.924;2022-08-19T15:11:37;17.70;99.90
42615;DHT22;28754;47.700;7.924;2022-08-19T15:14:25;17.60;99.90
42615;DHT22;28754;47.700;7.924;2022-08-19T15:17:13;17.40;99.90
42615;DHT22;28754;47.700;7.924;2022-08-19T15:19:59;17.20;99.90
42615;DHT22;28754;47.700;7.924;2022-08-19T15:22:47;17.40;99.90
42615;DHT22;28754;47.700;7.924;2022-08-19T15:25:34;17.70;99.90
42615;DHT22;28754;47.700;7.924;2022-08-19T15:28:22;18.00;99.90
42615;DHT22;28754;47.700;7.924;2022-08-19T15:31:11;18.30;99.90
42615;DHT22;28754;47.700;7.924;2022-08-19T15:33:58;18.70;99.90
42615;DHT22;28754;47.700;7.924;2022-08-19T15:36:45;18.80;99.90
42615;DHT22;28754;47.700;7.924;2022-08-19T15:39:32;18.90;99.90
42615;DHT22;28754;47.700;7.924;2022-08-19T15:42:19;19.10;99.90
42615;DHT22;28754;47.700;7.924;2022-08-19T15:45:07;18.50;99.90
42615;DHT22;28754;47.700;7.924;2022-08-19T15:47:55;18.30;99.90
42615;DHT22;28754;47.700;7.924;2022-08-19T15:50:42;18.30;99.90
42615;DHT22;28754;47.700;7.924;2022-08-19T15:53:28;18.50;99.90
42615;DHT22;28754;47.700;7.924;2022-08-19T15:56:15;18.70;99.90
42615;DHT22;28754;47.700;7.924;2022-08-19T15:59:02;18.80;99.90
42615;DHT22;28754;47.700;7.924;2022-08-19T16:02:07;18.70;99.90
42615;DHT22;28754;47.700;7.924;2022-08-19T16:05:16;18.70;99.90
42615;DHT22;28754;47.700;7.924;2022-08-19T16:08:23;18.70;99.90
42615;DHT22;28754;47.700;7.924;2022-08-19T16:11:13;18.70;99.90
42615;DHT22;28754;47.700;7.924;2022-08-19T16:14:06;18.50;99.90
42615;DHT22;28754;47.700;7.924;2022-08-19T16:16:54;18.50;99.90
42615;DHT22;28754;47.700;7.924;2022-08-19T16:19:42;18.60;99.90
42615;DHT22;28754;47.700;7.924;2022-08-19T16:22:29;18.40;99.90
42615;DHT22;28754;47.700;7.924;2022-08-19T16:25:17;18.30;99.90
42615;DHT22;28754;47.700;7.924;2022-08-19T16:28:04;18.30;99.90
42615;DHT22;28754;47.700;7.924;2022-08-19T16:30:50;18.10;99.90
42615;DHT22;28754;47.700;7.924;2022-08-19T16:33:37;18.20;99.90
42615;DHT22;28754;47.700;7.924;2022-08-19T16:36:24;18.20;99.90
42615;DHT22;28754;47.700;7.924;2022-08-19T16:39:12;18.20;99.90
42615;DHT22;28754;47.700;7.924;2022-08-19T16:42:00;18.30;99.90
42615;DHT22;28754;47.700;7.924;2022-08-19T16:44:48;18.30;99.90
42615;DHT22;28754;47.700;7.924;2022-08-19T16:47:35;18.40;99.90
42615;DHT22;28754;47.700;7.924;2022-08-19T16:50:21;18.10;99.90
42615;DHT22;28754;47.700;7.924;2022-08-19T16:53:08;17.70;99.90
42615;DHT22;28754;47.700;7.924;2022-08-19T16:55:55;17.50;99.90
42615;DHT22;28754;47.700;7.924;2022-08-19T16:58:41;17.20;99.90
42615;DHT22;28754;47.700;7.924;2022-08-19T17:01:29;17.40;99.90
42615;DHT22;28754;47.700;7.924;2022-08-19T17:04:23;17.40;99.90
42615;DHT22;28754;47.700;7.924;2022-08-19T17:07:10;17.40;99.90
42615;DHT22;28754;47.700;7.924;2022-08-19T17:09:57;17.30;99.90
42615;DHT22;28754;47.700;7.924;2022-08-19T17:12:44;17.50;99.90
42615;DHT22;28754;47.700;7.924;2022-08-19T17:15:31;17.40;99.90
42615;DHT22;28754;47.700;7.924;2022-08-19T17:18:18;17.50;99.90
42615;DHT22;28754;47.700;7.924;2022-08-19T17:21:05;17.60;99.90
42615;DHT22;28754;47.700;7.924;2022-08-19T17:23:52;17.70;99.90
42615;DHT22;28754;47.700;7.924;2022-08-19T17:26:39;17.60;99.90
42615;DHT22;28754;47.700;7.924;2022-08-19T17:29:26;17.70;99.90
42615;DHT22;28754;47.700;7.924;2022-08-19T17:32:13;17.70;99.90
42615;DHT22;28754;47.700;7.924;2022-08-19T17:35:01;17.50;99.90
42615;DHT22;28754;47.700;7.924;2022-08-19T17:37:49;17.50;99.90
42615;DHT22;28754;47.700;7.924;2022-08-19T17:40:38;17.60;99.90
42615;DHT22;28754;47.700;7.924;2022-08-19T17:43:27;17.70;99.90
42615;DHT22;28754;47.700;7.924;2022-08-19T17:46:14;17.80;99.90